Time;durP1;ratioP1;P1;durP2;ratioP2;P2;SDS_P1;SDS_P2;PMS_P1;PMS_P2;Temp;Humidity;BMP_temperature;BMP_pressure;BME280_temperature;BME280_humidity;BME280_pressure;Samples;Min_cycle;Max_cycle;Signal;HPM_P1;HPM_P2
2024/01/03 00:01:49;;;;;;;11.00;1.92;;;;;;;11.09;100.00;98433.34;6223967;23;20020;-95
2024/01/03 00:04:28;;;;;;;8.93;2.08;;;;;;;11.06;100.00;98434.34;6223543;23;20020;-93
2024/01/03 00:06:55;;;;;;;10.15;2.20;;;;;;;11.35;100.00;98506.13;6222795;23;20036;-96
2024/01/03 00:09:21;;;;;;;14.93;2.10;;;;;;;10.88;100.00;98432.28;6222510;23;20021;-95
2024/01/03 00:11:50;;;;;;;13.15;2.35;;;;;;;10.92;100.00;98428.59;6224137;23;20070;-96
2024/01/03 00:14:25;;;;;;;6.28;1.55;;;;;;;11.04;100.00;98451.28;6222840;23;20025;-95
2024/01/03 00:17:01;;;;;;;5.85;1.70;;;;;;;11.04;100.00;98443.31;6247255;23;20016;-96
2024/01/03 00:19:35;;;;;;;14.60;1.67;;;;;;;11.09;100.00;98439.53;6223286;23;20020;-95
2024/01/03 00:22:10;;;;;;;6.95;2.03;;;;;;;10.99;100.00;98426.59;6224817;23;20021;-95
2024/01/03 00:24:48;;;;;;;3.95;1.42;;;;;;;11.01;100.00;98416.78;6224524;23;20428;-95
2024/01/03 00:27:22;;;;;;;11.25;1.50;;;;;;;11.23;100.00;98462.16;6222404;23;20020;-95
2024/01/03 00:29:52;;;;;;;6.88;1.40;;;;;;;11.02;100.00;98426.53;6224509;23;20021;-95
2024/01/03 00:32:25;;;;;;;4.93;1.90;;;;;;;11.15;100.00;98441.13;6224166;23;20078;-94
2024/01/03 00:34:58;;;;;;;3.42;1.38;;;;;;;11.05;100.00;98440.56;6223826;23;20044;-93
2024/01/03 00:37:29;;;;;;;5.93;1.50;;;;;;;10.98;100.00;98419.56;6224257;23;20039;-96
2024/01/03 00:40:06;;;;;;;8.88;1.40;;;;;;;11.15;100.00;98427.81;6221547;23;20001;-94
2024/01/03 00:42:37;;;;;;;5.95;1.30;;;;;;;11.51;100.00;98483.34;6221130;23;20017;-95
2024/01/03 00:45:06;;;;;;;7.25;1.10;;;;;;;11.06;100.00;98436.09;6222564;23;20024;-94
2024/01/03 00:47:35;;;;;;;12.88;2.00;;;;;;;11.40;100.00;98474.88;6222614;23;20435;-95
2024/01/03 00:50:07;;;;;;;8.48;1.45;;;;;;;11.25;100.00;98450.50;6222937;23;20021;-94
2024/01/03 00:52:32;;;;;;;5.97;1.25;;;;;;;11.33;100.00;98465.38;6247728;23;20355;-93
2024/01/03 00:54:58;;;;;;;12.75;1.95;;;;;;;11.09;100.00;98434.22;6221507;23;20017;-96
2024/01/03 00:57:24;;;;;;;5.68;2.30;;;;;;;11.04;100.00;98443.31;6221990;23;20017;-95
2024/01/03 00:59:50;;;;;;;6.05;1.80;;;;;;;11.61;100.00;98523.84;6220697;23;20024;-94
2024/01/03 01:02:23;;;;;;;9.52;2.33;;;;;;;11.00;100.00;98423.03;6226493;23;20020;-95
2024/01/03 01:04:50;;;;;;;8.35;1.65;;;;;;;10.96;100.00;98426.72;6248152;22;20016;-96
2024/01/03 01:07:21;;;;;;;7.25;1.55;;;;;;;10.92;100.00;98415.31;6222626;23;20021;-94
2024/01/03 01:09:49;;;;;;;9.00;1.50;;;;;;;11.13;100.00;98440.31;6221369;23;20032;-94
2024/01/03 01:12:15;;;;;;;4.80;1.30;;;;;;;11.04;100.00;98435.31;6248014;22;20043;-95
2024/01/03 01:14:41;;;;;;;5.00;1.58;;;;;;;11.31;100.00;98484.06;6222304;23;20055;-94
2024/01/03 01:17:06;;;;;;;9.18;1.42;;;;;;;11.09;100.00;98450.19;6219401;23;20071;-94
2024/01/03 01:19:32;;;;;;;6.65;1.38;;;;;;;11.41;100.00;98489.94;6219151;23;20005;-93
2024/01/03 01:21:58;;;;;;;7.22;1.05;;;;;;;11.18;100.00;98421.53;6245186;22;20383;-96
2024/01/03 01:24:25;;;;;;;9.45;1.67;;;;;;;11.12;100.00;98427.91;6220085;23;20106;-94
2024/01/03 01:26:51;;;;;;;9.23;1.50;;;;;;;11.06;100.00;98436.09;6217644;23;20021;-95
2024/01/03 01:29:17;;;;;;;6.97;1.40;;;;;;;11.06;100.00;98450.31;6218416;23;20021;-93
2024/01/03 01:31:43;;;;;;;4.13;1.25;;;;;;;10.99;100.00;98437.25;6218596;23;20020;-95
2024/01/03 01:34:11;;;;;;;5.57;1.23;;;;;;;11.08;100.00;98456.44;6219150;23;20029;-96
2024/01/03 01:36:37;;;;;;;5.65;1.48;;;;;;;10.84;100.00;98412.94;6219845;23;20020;-95
2024/01/03 01:39:04;;;;;;;4.82;1.30;;;;;;;11.39;100.00;98489.13;6218288;23;20514;-95
2024/01/03 01:41:31;;;;;;;4.18;1.20;;;;;;;11.12;100.00;98433.25;6218464;23;20503;-93
2024/01/03 01:43:57;;;;;;;5.00;1.33;;;;;;;10.96;100.00;98402.78;6219064;23;20383;-95
2024/01/03 01:46:28;;;;;;;6.60;1.30;;;;;;;11.14;100.00;98452.69;6217787;23;20013;-94
2024/01/03 01:48:54;;;;;;;9.90;1.45;;;;;;;10.81;100.00;98413.00;6218213;23;20028;-96
2024/01/03 01:51:20;;;;;;;3.97;1.10;;;;;;;11.16;100.00;98465.94;6218236;23;20019;-93
2024/01/03 01:53:46;;;;;;;2.97;1.17;;;;;;;11.14;100.00;98455.34;6244020;23;20064;-95
2024/01/03 01:56:13;;;;;;;8.48;1.48;;;;;;;11.13;100.00;98442.97;6218466;23;20012;-95
2024/01/03 01:58:41;;;;;;;8.05;1.38;;;;;;;10.94;100.00;98399.31;6219611;23;20024;-94
2024/01/03 02:01:07;;;;;;;3.03;1.13;;;;;;;11.33;100.00;98455.59;6219064;23;20024;-95
2024/01/03 02:03:36;;;;;;;1.75;0.80;;;;;;;11.06;100.00;98388.22;6217454;23;20036;-95
2024/01/03 02:06:03;;;;;;;3.88;1.63;;;;;;;11.21;100.00;98426.72;6218832;23;20031;-95
2024/01/03 02:08:30;;;;;;;6.85;1.00;;;;;;;10.90;100.00;98385.22;6219871;23;20055;-96
2024/01/03 02:10:56;;;;;;;5.22;1.27;;;;;;;11.02;100.00;98391.94;6220928;23;20032;-94
2024/01/03 02:13:22;;;;;;;8.95;1.20;;;;;;;10.89;100.00;98367.53;6222245;23;20021;-94
2024/01/03 02:15:49;;;;;;;2.65;1.05;;;;;;;10.96;100.00;98370.84;6246798;22;20016;-96
2024/01/03 02:18:17;;;;;;;5.30;1.15;;;;;;;11.32;100.00;98424.56;6221379;23;20013;-95
2024/01/03 02:20:44;;;;;;;3.70;1.23;;;;;;;10.90;100.00;98351.50;6220480;23;20072;-95
2024/01/03 02:23:14;;;;;;;2.75;1.00;;;;;;;11.49;100.00;98429.28;6220252;23;20016;-96
2024/01/03 02:25:41;;;;;;;6.85;1.00;;;;;;;10.88;100.00;98344.50;6246078;22;20031;-95
2024/01/03 02:28:09;;;;;;;4.63;1.00;;;;;;;11.21;100.00;98360.19;6220703;23;20055;-96
2024/01/03 02:30:35;;;;;;;7.68;1.40;;;;;;;11.28;100.00;98369.72;6220884;23;20130;-93
2024/01/03 02:33:01;;;;;;;8.60;1.30;;;;;;;11.48;100.00;98398.25;6247101;23;20021;-94
2024/01/03 02:35:30;;;;;;;2.88;0.85;;;;;;;11.03;100.00;98312.03;6221514;23;20020;-95
2024/01/03 02:37:56;;;;;;;4.28;1.27;;;;;;;11.35;100.00;98349.91;6219827;23;20027;-93
2024/01/03 02:40:23;;;;;;;7.90;1.33;;;;;;;11.15;100.00;98304.56;6221760;23;20024;-95
2024/01/03 02:42:49;;;;;;;4.97;1.23;;;;;;;11.21;100.00;98353.09;6218940;23;20332;-94
2024/01/03 02:45:16;;;;;;;2.15;1.02;;;;;;;11.22;100.00;98365.47;6221814;23;20055;-95
2024/01/03 02:47:42;;;;;;;5.85;0.85;;;;;;;11.12;100.00;98326.78;6222336;23;20021;-95
2024/01/03 02:50:10;;;;;;;2.75;0.73;;;;;;;11.36;100.00;98346.31;6221089;23;20385;-95
2024/01/03 02:52:39;;;;;;;5.88;1.50;;;;;;;11.05;100.00;98294.22;6221815;23;20030;-94
2024/01/03 02:55:07;;;;;;;6.97;0.98;;;;;;;11.10;100.00;98292.28;6222423;23;20024;-94
2024/01/03 02:57:35;;;;;;;7.43;0.75;;;;;;;11.23;100.00;98329.97;6222872;23;20017;-95
2024/01/03 03:00:03;;;;;;;3.25;0.80;;;;;;;11.00;100.00;98292.66;6221187;23;20084;-94
2024/01/03 03:02:29;;;;;;;3.47;0.68;;;;;;;11.52;100.00;98358.16;6221911;23;20028;-93
2024/01/03 03:04:55;;;;;;;5.10;0.93;;;;;;;10.92;100.00;98281.44;6221282;23;20017;-93
2024/01/03 03:07:24;;;;;;;6.68;0.95;;;;;;;10.87;100.00;98289.59;6221331;23;20493;-93
2024/01/03 03:09:54;;;;;;;5.88;0.88;;;;;;;10.92;100.00;98284.97;6220428;23;20461;-95
2024/01/03 03:12:22;;;;;;;2.17;0.70;;;;;;;11.46;100.00;98336.22;6221480;23;20012;-94
2024/01/03 03:14:52;;;;;;;2.15;0.82;;;;;;;11.09;100.00;98282.53;6221528;23;20027;-93
2024/01/03 03:17:18;;;;;;;8.25;1.10;;;;;;;11.27;100.00;98296.94;6221375;23;20071;-94
2024/01/03 03:19:44;;;;;;;5.72;1.00;;;;;;;11.18;100.00;98283.13;6220275;23;20024;-95
2024/01/03 03:22:14;;;;;;;5.93;1.02;;;;;;;11.56;100.00;98340.28;6221770;23;20051;-94
2024/01/03 03:24:40;;;;;;;3.55;0.75;;;;;;;11.69;100.00;98344.19;6246121;23;20017;-95
2024/01/03 03:27:09;;;;;;;9.85;1.10;;;;;;;11.41;100.00;98312.44;6219663;23;20048;-94
2024/01/03 03:29:34;;;;;;;8.98;1.20;;;;;;;11.29;100.00;98295.09;6220124;23;20047;-96
2024/01/03 03:32:02;;;;;;;5.68;1.02;;;;;;;11.54;100.00;98331.47;6220788;23;20432;-95
2024/01/03 03:34:28;;;;;;;2.42;1.00;;;;;;;11.15;100.00;98260.19;6220948;23;20094;-95
2024/01/03 03:36:56;;;;;;;6.65;1.20;;;;;;;11.38;100.00;98296.53;6220663;23;20439;-95
2024/01/03 03:39:25;;;;;;;7.25;0.95;;;;;;;11.23;100.00;98270.50;6220945;23;20431;-95
2024/01/03 03:41:51;;;;;;;3.53;0.70;;;;;;;11.44;100.00;98316.75;6221809;23;20458;-95
2024/01/03 03:44:17;;;;;;;4.40;1.20;;;;;;;11.12;100.00;98270.91;6220510;23;20017;-95
2024/01/03 03:46:45;;;;;;;2.92;0.95;;;;;;;11.22;100.00;98284.75;6220586;23;20111;-96
2024/01/03 03:49:15;;;;;;;6.78;0.90;;;;;;;10.98;100.00;98244.84;6221235;23;20024;-95
2024/01/03 03:51:41;;;;;;;1.80;0.77;;;;;;;11.05;100.00;98264.09;6222559;23;20011;-94
2024/01/03 03:54:07;;;;;;;4.53;1.17;;;;;;;10.96;100.00;98270.63;6221665;23;20088;-95
2024/01/03 03:56:35;;;;;;;4.57;0.98;;;;;;;11.35;100.00;98330.44;6219549;23;20075;-96
2024/01/03 03:59:01;;;;;;;5.28;0.88;;;;;;;11.39;100.00;98330.25;6221207;23;20020;-96
2024/01/03 04:01:27;;;;;;;3.28;0.93;;;;;;;11.21;100.00;98293.66;6220981;23;20022;-94
2024/01/03 04:03:57;;;;;;;4.20;0.90;;;;;;;10.99;100.00;98243.03;6220271;23;20020;-95
2024/01/03 04:06:24;;;;;;;4.28;0.80;;;;;;;11.15;100.00;98254.84;6221482;22;20048;-94
2024/01/03 04:08:53;;;;;;;2.60;0.90;;;;;;;11.10;100.00;98235.50;6221730;23;20036;-94
2024/01/03 04:11:18;;;;;;;3.30;0.85;;;;;;;11.49;100.00;98296.13;6246860;23;20023;-95
2024/01/03 04:13:44;;;;;;;4.80;1.00;;;;;;;11.20;100.00;98246.69;6220208;23;20112;-94
2024/01/03 04:16:10;;;;;;;4.50;0.80;;;;;;;11.44;100.00;98300.78;6221278;23;20020;-94
2024/01/03 04:18:36;;;;;;;5.70;0.95;;;;;;;11.41;100.00;98284.94;6222929;23;20047;-95
2024/01/03 04:21:08;;;;;;;2.90;0.60;;;;;;;11.40;100.00;98284.06;6220837;23;20111;-95
2024/01/03 04:23:35;;;;;;;4.57;0.80;;;;;;;11.19;100.00;98256.47;6220842;23;20103;-95
2024/01/03 04:26:01;;;;;;;6.97;0.80;;;;;;;11.47;100.00;98280.25;6222219;23;20021;-94
2024/01/03 04:28:33;;;;;;;2.45;1.05;;;;;;;11.09;100.00;98217.81;6222306;23;20072;-94
2024/01/03 04:30:59;;;;;;;1.77;0.65;;;;;;;11.34;100.00;98267.44;6222331;23;20027;-94
2024/01/03 04:33:25;;;;;;;2.65;0.80;;;;;;;11.43;100.00;98277.75;6222371;23;20021;-94
2024/01/03 04:35:55;;;;;;;4.60;0.80;;;;;;;11.47;100.00;98292.66;6221175;23;20017;-96
2024/01/03 04:38:21;;;;;;;6.50;0.82;;;;;;;11.59;100.00;98310.84;6221058;23;20021;-94
2024/01/03 04:40:54;;;;;;;4.28;0.98;;;;;;;11.15;100.00;98217.59;6223482;23;20024;-94
2024/01/03 04:43:21;;;;;;;5.30;0.80;;;;;;;11.29;100.00;98222.38;6248360;23;20447;-95
2024/01/03 04:45:50;;;;;;;4.57;1.00;;;;;;;11.26;100.00;98228.69;6221662;23;20024;-95
2024/01/03 04:48:16;;;;;;;6.03;1.40;;;;;;;11.30;100.00;98225.00;6222225;23;20017;-95
2024/01/03 04:50:46;;;;;;;4.10;0.80;;;;;;;11.23;100.00;98246.56;6220276;23;20032;-94
2024/01/03 04:53:15;;;;;;;2.47;0.80;;;;;;;11.64;100.00;98282.22;6245504;23;20109;-95
2024/01/03 04:55:42;;;;;;;1.67;0.88;;;;;;;11.60;100.00;98274.41;6220752;23;20020;-95
2024/01/03 04:58:09;;;;;;;12.32;1.10;;;;;;;11.65;100.00;98281.31;6220373;23;20016;-95
2024/01/03 05:00:37;;;;;;;4.65;0.90;;;;;;;11.42;100.00;98218.31;6219776;23;20059;-95
2024/01/03 05:03:06;;;;;;;3.65;0.88;;;;;;;11.66;100.00;98253.75;6219028;23;20024;-95
2024/01/03 05:05:34;;;;;;;7.18;0.98;;;;;;;11.68;100.00;98261.69;6219780;23;20020;-94
2024/01/03 05:08:00;;;;;;;2.08;0.85;;;;;;;11.61;100.00;98269.03;6219218;23;20001;-94
2024/01/03 05:10:27;;;;;;;2.85;0.68;;;;;;;11.47;100.00;98250.06;6220707;23;20032;-95
2024/01/03 05:12:54;;;;;;;4.60;1.35;;;;;;;11.47;100.00;98239.41;6243523;23;20044;-95
2024/01/03 05:15:24;;;;;;;5.28;0.73;;;;;;;11.50;100.00;98255.28;6219601;23;20028;-95
2024/01/03 05:17:53;;;;;;;3.05;0.82;;;;;;;11.54;100.00;98259.56;6220327;23;20021;-93
2024/01/03 05:20:19;;;;;;;4.78;1.13;;;;;;;11.48;100.00;98233.19;6220056;23;20096;-95
2024/01/03 05:22:47;;;;;;;4.75;1.48;;;;;;;11.56;100.00;98243.50;6243840;23;20021;-95
2024/01/03 05:25:13;;;;;;;2.40;0.90;;;;;;;11.83;100.00;98277.03;6219619;23;20016;-95
2024/01/03 05:27:39;;;;;;;4.07;0.77;;;;;;;12.05;100.00;98311.72;6220823;23;20464;-96
2024/01/03 05:30:09;;;;;;;3.60;1.02;;;;;;;12.02;100.00;98293.19;6220348;23;20027;-95
2024/01/03 05:32:37;;;;;;;4.82;1.05;;;;;;;11.75;100.00;98241.00;6220972;23;20120;-95
2024/01/03 05:35:09;;;;;;;5.97;0.98;;;;;;;11.55;100.00;98216.03;6220372;23;20021;-94
2024/01/03 05:37:35;;;;;;;7.38;1.23;;;;;;;11.59;100.00;98219.44;6220626;23;20020;-95
2024/01/03 05:40:02;;;;;;;6.40;1.60;;;;;;;11.73;100.00;98233.06;6220316;23;20037;-95
2024/01/03 05:42:28;;;;;;;7.63;0.98;;;;;;;11.82;100.00;98253.13;6220801;23;20025;-95
2024/01/03 05:44:56;;;;;;;7.60;1.25;;;;;;;11.94;100.00;98273.13;6247344;22;20059;-96
2024/01/03 05:47:22;;;;;;;7.15;1.58;;;;;;;11.57;100.00;98234.63;6222431;23;20451;-95
2024/01/03 05:49:50;;;;;;;3.53;0.93;;;;;;;11.85;100.00;98275.19;6220573;23;20024;-94
2024/01/03 05:52:22;;;;;;;6.10;1.10;;;;;;;11.76;100.00;98259.59;6221892;23;20016;-94
2024/01/03 05:54:48;;;;;;;4.22;1.17;;;;;;;11.98;100.00;98286.25;6223230;23;20029;-93
2024/01/03 05:57:18;;;;;;;6.65;0.77;;;;;;;11.84;100.00;98260.16;6224713;23;20411;-95
2024/01/03 05:59:44;;;;;;;4.45;0.85;;;;;;;11.81;100.00;98268.25;6223071;23;20458;-94
2024/01/03 06:02:10;;;;;;;8.70;0.93;;;;;;;11.56;100.00;98238.19;6224767;23;20016;-94
2024/01/03 06:04:38;;;;;;;7.50;1.20;;;;;;;11.95;100.00;98321.03;6223672;23;20027;-95
2024/01/03 06:07:08;;;;;;;4.95;1.55;;;;;;;11.54;100.00;98253.34;6223310;23;20324;-95
2024/01/03 06:09:34;;;;;;;2.50;0.77;;;;;;;11.68;100.00;98235.03;6223342;23;20152;-95
2024/01/03 06:12:04;;;;;;;6.88;0.95;;;;;;;11.59;100.00;98233.63;6222536;23;20080;-95
2024/01/03 06:14:31;;;;;;;3.75;1.02;;;;;;;12.21;100.00;98311.97;6223672;23;20021;-96
2024/01/03 06:16:57;;;;;;;3.80;0.90;;;;;;;12.08;100.00;98292.97;6223870;23;20111;-96
2024/01/03 06:19:23;;;;;;;7.35;1.02;;;;;;;12.17;100.00;98297.03;6222406;23;20504;-94
2024/01/03 06:21:49;;;;;;;4.30;0.77;;;;;;;12.19;100.00;98288.97;6223112;23;19997;-93
2024/01/03 06:24:17;;;;;;;3.90;1.25;;;;;;;11.91;100.00;98247.47;6223522;23;20025;-95
2024/01/03 06:26:43;;;;;;;6.45;1.02;;;;;;;12.01;100.00;98286.13;6222274;23;20036;-95
2024/01/03 06:29:12;;;;;;;5.20;1.25;;;;;;;11.95;100.00;98259.75;6222389;23;20019;-94
2024/01/03 06:31:37;;;;;;;10.50;1.23;;;;;;;11.91;100.00;98267.00;6222280;23;20103;-95
2024/01/03 06:34:06;;;;;;;5.22;1.60;;;;;;;12.24;100.00;98345.63;6221000;23;20351;-95
2024/01/03 06:36:34;;;;;;;3.10;1.02;;;;;;;11.89;100.00;98279.50;6222456;23;20020;-94
2024/01/03 06:39:00;;;;;;;3.65;1.20;;;;;;;12.08;100.00;98300.94;6225675;23;20024;-94
2024/01/03 06:41:30;;;;;;;5.55;1.42;;;;;;;11.96;100.00;98277.47;6223785;23;20031;-95
2024/01/03 06:43:56;;;;;;;7.18;1.83;;;;;;;11.88;100.00;98275.13;6249408;23;20107;-94
2024/01/03 06:46:27;;;;;;;3.13;1.20;;;;;;;12.00;100.00;98273.75;6222401;23;20037;-94
2024/01/03 06:48:58;;;;;;;4.90;1.00;;;;;;;12.24;100.00;98317.19;6224095;23;20074;-93
2024/01/03 06:51:25;;;;;;;7.80;1.35;;;;;;;12.15;100.00;98303.38;6223419;23;20020;-94
2024/01/03 06:53:51;;;;;;;11.52;1.20;;;;;;;11.89;100.00;98265.31;6222630;23;20007;-94
2024/01/03 06:56:19;;;;;;;20.00;1.42;;;;;;;12.35;100.00;98348.72;6222760;23;20020;-95
2024/01/03 06:58:50;;;;;;;2.92;1.25;;;;;;;11.87;100.00;98277.81;6223516;23;20076;-94
2024/01/03 07:01:16;;;;;;;3.78;1.20;;;;;;;11.87;100.00;98277.81;6225610;23;20347;-94
2024/01/03 07:03:42;;;;;;;5.45;1.48;;;;;;;11.94;100.00;98271.31;6222967;23;20042;-95
2024/01/03 07:06:10;;;;;;;8.35;1.00;;;;;;;12.48;100.00;98343.75;6223210;23;20028;-93
2024/01/03 07:08:39;;;;;;;7.00;1.13;;;;;;;11.96;100.00;98272.13;6225290;23;20427;-95
2024/01/03 07:11:05;;;;;;;6.97;1.30;;;;;;;11.92;100.00;98267.84;6224155;23;20429;-94
2024/01/03 07:13:32;;;;;;;4.32;1.08;;;;;;;12.26;100.00;98309.97;6223751;23;20013;-95
2024/01/03 07:16:03;;;;;;;6.68;1.55;;;;;;;12.04;100.00;98263.84;6222542;23;20016;-95
2024/01/03 07:18:30;;;;;;;7.57;2.03;;;;;;;11.99;100.00;98285.34;6221958;23;20017;-95
2024/01/03 07:20:59;;;;;;;9.10;1.90;;;;;;;12.36;100.00;98334.47;6222853;23;20427;-95
2024/01/03 07:23:28;;;;;;;6.82;1.55;;;;;;;12.49;100.00;98349.03;6223704;23;20024;-95
2024/01/03 07:25:54;;;;;;;8.63;1.88;;;;;;;12.08;100.00;98276.09;6221972;23;20027;-94
2024/01/03 07:28:20;;;;;;;7.88;1.33;;;;;;;12.24;100.00;98314.50;6222949;23;20016;-93
2024/01/03 07:30:46;;;;;;;8.25;1.45;;;;;;;12.10;100.00;98292.88;6222742;23;20005;-94
2024/01/03 07:33:17;;;;;;;4.60;1.67;;;;;;;12.03;100.00;98288.72;6222008;23;20023;-94
2024/01/03 07:35:49;;;;;;;5.10;1.45;;;;;;;12.01;100.00;98286.13;6249792;23;20047;-96
2024/01/03 07:38:18;;;;;;;7.63;1.27;;;;;;;12.30;100.00;98340.06;6226061;23;20016;-95
2024/01/03 07:40:46;;;;;;;6.47;1.25;;;;;;;12.17;100.00;98302.38;6250296;22;20137;-95
2024/01/03 07:43:14;;;;;;;7.55;1.73;;;;;;;12.13;100.00;98285.63;6225692;23;20435;-96
2024/01/03 07:45:40;;;;;;;5.53;1.70;;;;;;;11.97;100.00;98288.97;6229520;23;20016;-95
2024/01/03 07:48:08;;;;;;;5.55;1.98;;;;;;;12.26;100.00;98325.97;6225076;23;20016;-95
2024/01/03 07:50:35;;;;;;;7.00;1.40;;;;;;;12.17;100.00;98296.19;6224292;23;20040;-96
2024/01/03 07:53:05;;;;;;;7.72;1.35;;;;;;;12.11;100.00;98292.81;6250282;23;20021;-95
2024/01/03 07:55:34;;;;;;;3.72;1.30;;;;;;;12.05;100.00;98285.06;6224978;23;20012;-95
2024/01/03 07:58:06;;;;;;;2.70;1.23;;;;;;;12.10;100.00;98279.53;6250915;22;20020;-96
2024/01/03 08:00:32;;;;;;;7.63;2.13;;;;;;;12.20;100.00;98299.56;6226574;23;20378;-95
2024/01/03 08:02:58;;;;;;;5.78;1.20;;;;;;;12.15;100.00;98298.03;6226184;23;20047;-94
2024/01/03 08:05:25;;;;;;;6.43;1.52;;;;;;;12.23;100.00;98310.13;6224963;23;20020;-96
2024/01/03 08:07:53;;;;;;;8.23;1.58;;;;;;;12.23;100.00;98306.56;6224900;23;20048;-96
2024/01/03 08:10:19;;;;;;;7.97;1.58;;;;;;;12.16;100.00;98307.75;6226145;23;20004;-95
2024/01/03 08:12:49;;;;;;;9.50;1.73;;;;;;;12.17;100.00;98326.38;6225077;23;20023;-95
2024/01/03 08:15:16;;;;;;;6.15;1.52;;;;;;;12.15;100.00;98319.38;6224155;23;20016;-95
2024/01/03 08:17:45;;;;;;;3.08;1.42;;;;;;;12.17;100.00;98334.34;6222643;23;20016;-96
2024/01/03 08:20:12;;;;;;;5.50;1.63;;;;;;;12.35;100.00;98362.06;6223441;23;20032;-95
2024/01/03 08:22:39;;;;;;;5.10;1.33;;;;;;;12.24;100.00;98351.84;6227873;23;20375;-95
2024/01/03 08:25:19;;;;;;;5.68;1.65;;;;;;;12.64;100.00;98419.56;6227239;23;20021;-94
2024/01/03 08:27:48;;;;;;;9.82;2.40;;;;;;;12.16;100.00;98350.41;6227329;23;20016;-95
2024/01/03 08:30:16;;;;;;;7.20;2.22;;;;;;;12.64;100.00;98442.69;6226273;23;20021;-94
2024/01/03 08:32:43;;;;;;;13.25;1.98;;;;;;;12.62;100.00;98432.09;6227428;23;20080;-95
2024/01/03 08:35:13;;;;;;;10.23;2.40;;;;;;;12.24;100.00;98359.84;6227373;23;20084;-96
2024/01/03 08:37:39;;;;;;;5.43;1.50;;;;;;;12.60;100.00;98417.94;6227574;23;20016;-95
2024/01/03 08:40:08;;;;;;;4.57;1.42;;;;;;;12.22;100.00;98359.03;6228598;23;20016;-96
2024/01/03 08:42:44;;;;;;;7.03;1.77;;;;;;;12.27;100.00;98372.16;6229414;23;20013;-96
2024/01/03 08:45:12;;;;;;;4.75;1.65;;;;;;;12.69;100.00;98438.03;6227464;23;20024;-94
2024/01/03 08:47:43;;;;;;;4.05;1.50;;;;;;;12.35;100.00;98375.41;6228172;23;20343;-95
2024/01/03 08:50:13;;;;;;;7.93;1.85;;;;;;;12.43;100.00;98388.44;6229185;23;20043;-96
2024/01/03 08:52:41;;;;;;;12.48;2.95;;;;;;;12.24;100.00;98361.63;6229210;23;20016;-95
2024/01/03 08:55:11;;;;;;;6.00;1.77;;;;;;;12.54;100.00;98416.38;6227415;23;20076;-95
2024/01/03 08:57:47;;;;;;;7.15;2.20;;;;;;;12.29;100.00;98365.84;6225113;23;20020;-95
2024/01/03 09:00:14;;;;;;;7.38;2.08;;;;;;;12.19;100.00;98363.59;6222706;23;20040;-95
2024/01/03 09:02:40;;;;;;;5.55;1.92;;;;;;;12.24;100.00;98375.81;6227139;23;20111;-94
2024/01/03 09:05:10;;;;;;;6.72;1.83;;;;;;;12.35;100.00;98386.06;6250134;23;20027;-95
2024/01/03 09:07:37;;;;;;;6.20;1.73;;;;;;;12.50;100.00;98397.91;6224780;23;20020;-95
2024/01/03 09:10:06;;;;;;;7.78;2.08;;;;;;;12.51;100.00;98395.19;6224034;23;20104;-95
2024/01/03 09:12:33;;;;;;;4.95;1.23;;;;;;;12.38;100.00;98364.59;6224327;23;20024;-94
2024/01/03 09:15:04;;;;;;;6.50;1.63;;;;;;;12.48;100.00;98381.09;6248642;23;20469;-96
2024/01/03 09:17:31;;;;;;;10.00;1.73;;;;;;;12.37;100.00;98344.22;6223978;23;20300;-96
2024/01/03 09:20:00;;;;;;;5.57;2.00;;;;;;;12.52;100.00;98367.56;6226596;23;20017;-96
2024/01/03 09:22:27;;;;;;;11.25;2.33;;;;;;;12.62;100.00;98378.75;6225006;23;20443;-96
2024/01/03 09:24:53;;;;;;;5.07;1.83;;;;;;;12.63;100.00;98380.47;6225562;23;20022;-95
2024/01/03 09:27:19;;;;;;;6.93;1.75;;;;;;;12.75;100.00;98411.09;6225421;23;20070;-93
2024/01/03 09:29:49;;;;;;;4.35;1.27;;;;;;;12.44;100.00;98343.00;6224260;23;20010;-96
2024/01/03 09:32:17;;;;;;;3.28;1.33;;;;;;;12.47;100.00;98347.34;6249358;23;20075;-94
2024/01/03 09:34:44;;;;;;;9.75;1.55;;;;;;;12.46;100.00;98350.97;6224217;23;20108;-95
2024/01/03 09:37:10;;;;;;;3.92;1.00;;;;;;;12.68;100.00;98389.13;6221461;23;20108;-94
2024/01/03 09:39:39;;;;;;;7.05;1.63;;;;;;;12.64;100.00;98390.22;6225026;23;20017;-94
2024/01/03 09:42:06;;;;;;;8.00;1.65;;;;;;;12.43;100.00;98367.09;6222792;23;20016;-94
2024/01/03 09:44:33;;;;;;;7.80;1.42;;;;;;;12.44;100.00;98359.00;6248541;23;20028;-93
2024/01/03 09:47:02;;;;;;;9.77;2.08;;;;;;;12.92;100.00;98437.06;6223745;23;20016;-95
2024/01/03 09:49:29;;;;;;;6.82;1.70;;;;;;;12.72;100.00;98379.22;6222742;23;20458;-96
2024/01/03 09:51:56;;;;;;;6.32;1.60;;;;;;;12.64;100.00;98381.31;6223847;23;20028;-95
2024/01/03 09:54:25;;;;;;;10.45;1.88;;;;;;;12.93;100.00;98405.00;6224148;23;20107;-93
2024/01/03 09:56:55;;;;;;;6.60;1.65;;;;;;;12.59;100.00;98336.16;6224397;23;20016;-96
2024/01/03 09:59:22;;;;;;;5.70;1.30;;;;;;;13.14;100.00;98415.66;6223710;23;20340;-96
2024/01/03 10:01:56;;;;;;;3.90;1.73;;;;;;;12.82;100.00;98372.56;6223524;23;20020;-95
2024/01/03 10:04:21;;;;;;;5.88;1.83;;;;;;;12.72;100.00;98357.88;6223822;23;20012;-95
2024/01/03 10:07:02;;;;;;;2.58;1.35;;;;;;;13.08;100.00;98384.78;6222770;23;20028;-93
2024/01/03 10:09:40;;;;;;;8.35;1.27;;;;;;;12.83;100.00;98352.06;6222039;23;20063;-95
2024/01/03 10:12:20;;;;;;;8.02;1.50;;;;;;;13.09;100.00;98357.13;6249315;23;20088;-95
2024/01/03 10:14:46;;;;;;;6.03;1.50;;;;;;;13.26;100.00;98379.56;6224762;23;20021;-95
2024/01/03 10:17:32;;;;;;;3.67;1.20;;;;;;;13.07;100.00;98364.34;6225117;23;20017;-96
2024/01/03 10:20:00;;;;;;;4.07;1.42;;;;;;;13.21;100.00;98387.78;6225580;23;20004;-92
2024/01/03 10:22:34;;;;;;;5.13;1.60;;;;;;;13.16;100.00;98373.75;6223864;23;20024;-95
2024/01/03 10:25:16;;;;;;;3.42;1.20;;;;;;;13.47;100.00;98432.06;6224478;23;20043;-93
2024/01/03 10:27:42;;;;;;;5.25;1.90;;;;;;;13.03;100.00;98353.88;6223640;23;20439;-95
2024/01/03 10:30:17;;;;;;;6.30;1.52;;;;;;;13.00;100.00;98362.88;6223253;23;20051;-94
2024/01/03 10:32:44;;;;;;;3.40;1.40;;;;;;;13.30;100.00;98411.44;6247300;23;20108;-95
2024/01/03 10:35:17;;;;;;;6.38;1.63;;;;;;;12.97;100.00;98354.13;6225234;23;20020;-96
2024/01/03 10:37:50;;;;;;;9.90;2.13;;;;;;;12.81;100.00;98341.47;6223004;23;20359;-96
2024/01/03 10:40:20;;;;;;;9.68;1.77;;;;;;;13.18;100.00;98398.59;6248664;22;20020;-96
2024/01/03 10:42:50;;;;;;;6.63;1.67;;;;;;;12.76;100.00;98356.81;6223527;23;20024;-95
2024/01/03 10:45:16;;;;;;;;;;;;;;;13.26;100.00;98417.81;6223491;23;20509;-95
2024/01/03 10:47:42;;;;;;;6.32;1.67;;;;;;;13.07;100.00;98391.03;6222422;23;19965;-95
2024/01/03 10:50:09;;;;;;;5.80;2.35;;;;;;;13.10;100.00;98379.38;6220544;23;20076;-95
2024/01/03 10:52:37;;;;;;;6.60;2.13;;;;;;;13.34;100.00;98409.50;6221432;23;20027;-95
2024/01/03 10:55:07;;;;;;;8.07;1.63;;;;;;;13.18;100.00;98371.88;6246402;22;20044;-95
2024/01/03 10:57:40;;;;;;;6.45;1.85;;;;;;;13.23;100.00;98380.56;6221584;23;20044;-96
2024/01/03 11:00:14;;;;;;;6.90;1.75;;;;;;;13.01;100.00;98350.41;6220910;23;20055;-96
2024/01/03 11:02:49;;;;;;;4.95;1.58;;;;;;;12.77;100.00;98345.19;6221316;23;20016;-94
2024/01/03 11:05:23;;;;;;;6.32;1.83;;;;;;;12.85;100.00;98347.53;6221366;23;20016;-95
2024/01/03 11:07:58;;;;;;;9.15;2.05;;;;;;;12.92;100.00;98355.22;6245452;22;20047;-94
2024/01/03 11:10:48;;;;;;;5.00;1.80;;;;;;;13.34;100.00;98406.84;6221524;23;20048;-95
2024/01/03 11:13:28;;;;;;;5.30;2.10;;;;;;;12.81;100.00;98349.47;6222472;23;20103;-95
2024/01/03 11:15:55;;;;;;;9.93;2.67;;;;;;;12.94;100.00;98373.81;6246996;23;20031;-96
2024/01/03 11:18:50;;;;;;;6.50;2.45;;;;;;;13.30;100.00;98415.91;6222146;23;20025;-94
2024/01/03 11:21:35;;;;;;;;;;;;;;;13.29;100.00;98409.72;6221732;23;20020;-95
2024/01/03 11:24:04;;;;;;;7.65;3.28;;;;;;;13.02;100.00;98389.53;6220856;23;19970;-95
2024/01/03 11:27:03;;;;;;;12.52;4.82;;;;;;;12.93;100.00;98361.44;6219904;23;20051;-96
2024/01/03 11:29:42;;;;;;;8.57;2.60;;;;;;;12.90;100.00;98364.22;6221189;22;20016;-94
2024/01/03 11:32:12;;;;;;;6.00;1.77;;;;;;;12.68;100.00;98313.56;6220522;23;20017;-96